sensor_id;sensor_type;location;lat;lon;timestamp;temperature;humidity
25688;DHT22;17407;51.120;3.702;2022-09-09T00:01:51;17.00;99.90
25688;DHT22;17407;51.120;3.702;2022-09-09T00:04:26;17.00;99.90
25688;DHT22;17407;51.120;3.702;2022-09-09T00:07:15;16.90;99.90
25688;DHT22;17407;51.120;3.702;2022-09-09T00:09:47;17.00;99.90
25688;DHT22;17407;51.120;3.702;2022-09-09T00:12:35;17.00;99.90
25688;DHT22;17407;51.120;3.702;2022-09-09T00:15:19;16.90;99.90
25688;DHT22;17407;51.120;3.702;2022-09-09T00:20:27;16.80;99.90
25688;DHT22;17407;51.120;3.702;2022-09-09T00:25:29;17.00;99.90
25688;DHT22;17407;51.120;3.702;2022-09-09T00:27:57;17.10;99.90
25688;DHT22;17407;51.120;3.702;2022-09-09T00:30:25;17.20;99.90
25688;DHT22;17407;51.120;3.702;2022-09-09T00:32:59;17.20;99.90
25688;DHT22;17407;51.120;3.702;2022-09-09T00:35:33;17.20;99.90
25688;DHT22;17407;51.120;3.702;2022-09-09T00:38:21;17.30;99.90
25688;DHT22;17407;51.120;3.702;2022-09-09T00:41:26;17.20;99.90
25688;DHT22;17407;51.120;3.702;2022-09-09T00:44:25;17.20;99.90
25688;DHT22;17407;51.120;3.702;2022-09-09T00:47:12;17.10;99.90
25688;DHT22;17407;51.120;3.702;2022-09-09T00:57:54;17.00;99.90
25688;DHT22;17407;51.120;3.702;2022-09-09T01:00:25;17.00;99.90
25688;DHT22;17407;51.120;3.702;2022-09-09T01:03:04;17.10;99.90
25688;DHT22;17407;51.120;3.702;2022-09-09T01:16:59;17.00;99.90
25688;DHT22;17407;51.120;3.702;2022-09-09T01:20:29;16.90;99.90
25688;DHT22;17407;51.120;3.702;2022-09-09T01:27:47;16.70;99.90
25688;DHT22;17407;51.120;3.702;2022-09-09T01:30:16;16.80;99.90
25688;DHT22;17407;51.120;3.702;2022-09-09T01:32:48;16.80;99.90
25688;DHT22;17407;51.120;3.702;2022-09-09T01:35:43;16.80;99.90
25688;DHT22;17407;51.120;3.702;2022-09-09T01:38:12;16.70;99.90
25688;DHT22;17407;51.120;3.702;2022-09-09T01:40:39;16.70;99.90
25688;DHT22;17407;51.120;3.702;2022-09-09T01:43:04;16.80;99.90
25688;DHT22;17407;51.120;3.702;2022-09-09T01:45:32;16.70;99.90
25688;DHT22;17407;51.120;3.702;2022-09-09T01:47:58;16.70;99.90
25688;DHT22;17407;51.120;3.702;2022-09-09T01:50:24;16.80;99.90
25688;DHT22;17407;51.120;3.702;2022-09-09T01:52:54;16.80;99.90
25688;DHT22;17407;51.120;3.702;2022-09-09T01:55:29;16.80;99.90
25688;DHT22;17407;51.120;3.702;2022-09-09T01:58:07;16.80;99.90
25688;DHT22;17407;51.120;3.702;2022-09-09T02:00:42;16.80;99.90
25688;DHT22;17407;51.120;3.702;2022-09-09T02:03:25;16.60;99.90
25688;DHT22;17407;51.120;3.702;2022-09-09T02:08:47;16.60;99.90
25688;DHT22;17407;51.120;3.702;2022-09-09T02:11:16;16.50;99.90
25688;DHT22;17407;51.120;3.702;2022-09-09T02:13:48;16.50;99.90
25688;DHT22;17407;51.120;3.702;2022-09-09T02:16:24;16.60;99.90
25688;DHT22;17407;51.120;3.702;2022-09-09T02:19:09;16.60;99.90
25688;DHT22;17407;51.120;3.702;2022-09-09T02:21:38;16.60;99.90
25688;DHT22;17407;51.120;3.702;2022-09-09T02:24:06;16.60;99.90
25688;DHT22;17407;51.120;3.702;2022-09-09T02:26:39;16.60;99.90
25688;DHT22;17407;51.120;3.702;2022-09-09T02:29:09;16.70;99.90
25688;DHT22;17407;51.120;3.702;2022-09-09T02:31:37;16.70;99.90
25688;DHT22;17407;51.120;3.702;2022-09-09T02:34:05;16.70;99.90
25688;DHT22;17407;51.120;3.702;2022-09-09T02:36:34;16.70;99.90
25688;DHT22;17407;51.120;3.702;2022-09-09T02:39:03;16.80;99.90
25688;DHT22;17407;51.120;3.702;2022-09-09T02:41:33;16.90;99.90
25688;DHT22;17407;51.120;3.702;2022-09-09T02:43:59;16.80;99.90
25688;DHT22;17407;51.120;3.702;2022-09-09T02:49:40;16.80;99.90
25688;DHT22;17407;51.120;3.702;2022-09-09T02:52:15;16.70;99.90
25688;DHT22;17407;51.120;3.702;2022-09-09T02:54:44;16.70;99.90
25688;DHT22;17407;51.120;3.702;2022-09-09T02:57:12;16.60;99.90
25688;DHT22;17407;51.120;3.702;2022-09-09T02:59:40;16.70;99.90
25688;DHT22;17407;51.120;3.702;2022-09-09T03:02:07;16.70;99.90
25688;DHT22;17407;51.120;3.702;2022-09-09T03:04:33;16.70;99.90
25688;DHT22;17407;51.120;3.702;2022-09-09T03:06:59;16.70;99.90
25688;DHT22;17407;51.120;3.702;2022-09-09T03:09:24;16.70;99.90
25688;DHT22;17407;51.120;3.702;2022-09-09T03:11:51;16.80;99.90
25688;DHT22;17407;51.120;3.702;2022-09-09T03:14:17;16.80;99.90
25688;DHT22;17407;51.120;3.702;2022-09-09T03:16:46;16.80;99.90
25688;DHT22;17407;51.120;3.702;2022-09-09T03:19:12;16.80;99.90
25688;DHT22;17407;51.120;3.702;2022-09-09T03:21:38;16.80;99.90
25688;DHT22;17407;51.120;3.702;2022-09-09T03:24:04;16.90;99.90
25688;DHT22;17407;51.120;3.702;2022-09-09T03:26:30;16.80;99.90
25688;DHT22;17407;51.120;3.702;2022-09-09T03:28:57;16.80;99.90
25688;DHT22;17407;51.120;3.702;2022-09-09T03:31:22;16.80;99.90
25688;DHT22;17407;51.120;3.702;2022-09-09T03:33:48;16.80;99.90
25688;DHT22;17407;51.120;3.702;2022-09-09T03:36:14;16.70;99.90
25688;DHT22;17407;51.120;3.702;2022-09-09T03:38:41;16.60;99.90
25688;DHT22;17407;51.120;3.702;2022-09-09T03:41:07;16.50;99.90
25688;DHT22;17407;51.120;3.702;2022-09-09T03:43:33;16.60;99.90
25688;DHT22;17407;51.120;3.702;2022-09-09T03:45:59;16.60;99.90
25688;DHT22;17407;51.120;3.702;2022-09-09T03:48:25;16.70;99.90
25688;DHT22;17407;51.120;3.702;2022-09-09T03:50:53;16.70;99.90
25688;DHT22;17407;51.120;3.702;2022-09-09T03:53:22;16.60;99.90
25688;DHT22;17407;51.120;3.702;2022-09-09T03:55:50;16.70;99.90
25688;DHT22;17407;51.120;3.702;2022-09-09T03:58:18;16.60;99.90
25688;DHT22;17407;51.120;3.702;2022-09-09T04:00:57;16.70;99.90
25688;DHT22;17407;51.120;3.702;2022-09-09T04:03:24;16.60;99.90
25688;DHT22;17407;51.120;3.702;2022-09-09T04:05:55;16.60;99.90
25688;DHT22;17407;51.120;3.702;2022-09-09T04:08:21;16.60;99.90
25688;DHT22;17407;51.120;3.702;2022-09-09T04:10:49;16.50;99.90
25688;DHT22;17407;51.120;3.702;2022-09-09T04:13:16;16.50;99.90
25688;DHT22;17407;51.120;3.702;2022-09-09T04:15:42;16.50;99.90
25688;DHT22;17407;51.120;3.702;2022-09-09T04:18:08;16.50;99.90
25688;DHT22;17407;51.120;3.702;2022-09-09T04:20:34;16.60;99.90
25688;DHT22;17407;51.120;3.702;2022-09-09T04:23:01;16.50;99.90
25688;DHT22;17407;51.120;3.702;2022-09-09T04:25:26;16.60;99.90
25688;DHT22;17407;51.120;3.702;2022-09-09T04:27:57;16.60;99.90
25688;DHT22;17407;51.120;3.702;2022-09-09T04:30:24;16.50;99.90
25688;DHT22;17407;51.120;3.702;2022-09-09T04:32:50;16.50;99.90
25688;DHT22;17407;51.120;3.702;2022-09-09T04:35:16;16.60;99.90
25688;DHT22;17407;51.120;3.702;2022-09-09T04:37:42;16.60;99.90
25688;DHT22;17407;51.120;3.702;2022-09-09T04:40:08;16.50;99.90
25688;DHT22;17407;51.120;3.702;2022-09-09T04:42:38;16.50;99.90
25688;DHT22;17407;51.120;3.702;2022-09-09T04:45:06;16.60;99.90
25688;DHT22;17407;51.120;3.702;2022-09-09T04:47:32;16.50;99.90
25688;DHT22;17407;51.120;3.702;2022-09-09T04:50:00;16.50;99.90
25688;DHT22;17407;51.120;3.702;2022-09-09T04:52:28;16.50;99.90
25688;DHT22;17407;51.120;3.702;2022-09-09T04:54:54;16.50;99.90
25688;DHT22;17407;51.120;3.702;2022-09-09T04:57:20;16.50;99.90
25688;DHT22;17407;51.120;3.702;2022-09-09T04:59:46;16.60;99.90
25688;DHT22;17407;51.120;3.702;2022-09-09T05:02:11;16.60;99.90
25688;DHT22;17407;51.120;3.702;2022-09-09T05:04:37;16.50;99.90
25688;DHT22;17407;51.120;3.702;2022-09-09T05:07:03;16.60;99.90
25688;DHT22;17407;51.120;3.702;2022-09-09T05:09:29;16.60;99.90
25688;DHT22;17407;51.120;3.702;2022-09-09T05:11:55;16.60;99.90
25688;DHT22;17407;51.120;3.702;2022-09-09T05:14:21;16.60;99.90
25688;DHT22;17407;51.120;3.702;2022-09-09T05:16:47;16.60;99.90
25688;DHT22;17407;51.120;3.702;2022-09-09T05:19:15;16.60;99.90
25688;DHT22;17407;51.120;3.702;2022-09-09T05:21:41;16.60;99.90
25688;DHT22;17407;51.120;3.702;2022-09-09T05:24:07;16.50;99.90
25688;DHT22;17407;51.120;3.702;2022-09-09T05:26:32;16.60;99.90
25688;DHT22;17407;51.120;3.702;2022-09-09T05:28:58;16.50;99.90
25688;DHT22;17407;51.120;3.702;2022-09-09T05:31:25;16.50;99.90
25688;DHT22;17407;51.120;3.702;2022-09-09T05:33:53;16.50;99.90
25688;DHT22;17407;51.120;3.702;2022-09-09T05:36:20;16.50;99.90
25688;DHT22;17407;51.120;3.702;2022-09-09T05:38:47;16.50;99.90
25688;DHT22;17407;51.120;3.702;2022-09-09T05:41:13;16.50;99.90
25688;DHT22;17407;51.120;3.702;2022-09-09T05:43:43;16.60;99.90
25688;DHT22;17407;51.120;3.702;2022-09-09T05:46:18;16.50;99.90
25688;DHT22;17407;51.120;3.702;2022-09-09T05:48:45;16.60;99.90
25688;DHT22;17407;51.120;3.702;2022-09-09T05:51:17;16.60;99.90
25688;DHT22;17407;51.120;3.702;2022-09-09T05:53:44;16.50;99.90
25688;DHT22;17407;51.120;3.702;2022-09-09T05:56:15;16.50;99.90
25688;DHT22;17407;51.120;3.702;2022-09-09T05:58:43;16.50;99.90
25688;DHT22;17407;51.120;3.702;2022-09-09T06:01:16;16.50;99.90
25688;DHT22;17407;51.120;3.702;2022-09-09T06:03:43;16.50;99.90
25688;DHT22;17407;51.120;3.702;2022-09-09T06:06:11;16.50;99.90
25688;DHT22;17407;51.120;3.702;2022-09-09T06:08:39;16.50;99.90
25688;DHT22;17407;51.120;3.702;2022-09-09T06:11:10;16.60;99.90
25688;DHT22;17407;51.120;3.702;2022-09-09T06:13:36;16.60;99.90
25688;DHT22;17407;51.120;3.702;2022-09-09T06:16:05;16.60;99.90
25688;DHT22;17407;51.120;3.702;2022-09-09T06:18:32;16.60;99.90
25688;DHT22;17407;51.120;3.702;2022-09-09T06:21:03;16.50;99.90
25688;DHT22;17407;51.120;3.702;2022-09-09T06:23:32;16.60;99.90
25688;DHT22;17407;51.120;3.702;2022-09-09T06:26:06;16.50;99.90
25688;DHT22;17407;51.120;3.702;2022-09-09T06:28:33;16.50;99.90
25688;DHT22;17407;51.120;3.702;2022-09-09T06:31:06;16.60;99.90
25688;DHT22;17407;51.120;3.702;2022-09-09T06:33:37;16.60;99.90
25688;DHT22;17407;51.120;3.702;2022-09-09T06:36:07;16.50;99.90
25688;DHT22;17407;51.120;3.702;2022-09-09T06:38:35;16.60;99.90
25688;DHT22;17407;51.120;3.702;2022-09-09T06:41:01;16.60;99.90
25688;DHT22;17407;51.120;3.702;2022-09-09T06:43:27;16.50;99.90
25688;DHT22;17407;51.120;3.702;2022-09-09T06:46:02;16.60;99.90
25688;DHT22;17407;51.120;3.702;2022-09-09T06:48:27;16.70;99.90
25688;DHT22;17407;51.120;3.702;2022-09-09T06:51:07;16.60;99.90
25688;DHT22;17407;51.120;3.702;2022-09-09T06:53:35;16.60;99.90
25688;DHT22;17407;51.120;3.702;2022-09-09T06:56:02;16.80;99.90
25688;DHT22;17407;51.120;3.702;2022-09-09T06:58:28;16.80;99.90
25688;DHT22;17407;51.120;3.702;2022-09-09T07:01:04;17.00;99.90
25688;DHT22;17407;51.120;3.702;2022-09-09T07:03:31;16.90;99.90
25688;DHT22;17407;51.120;3.702;2022-09-09T07:05:57;16.90;99.90
25688;DHT22;17407;51.120;3.702;2022-09-09T07:08:23;16.90;99.90
25688;DHT22;17407;51.120;3.702;2022-09-09T07:10:50;16.90;99.90
25688;DHT22;17407;51.120;3.702;2022-09-09T07:13:25;17.00;99.90
25688;DHT22;17407;51.120;3.702;2022-09-09T07:15:52;17.00;99.90
25688;DHT22;17407;51.120;3.702;2022-09-09T07:18:19;17.10;99.90
25688;DHT22;17407;51.120;3.702;2022-09-09T07:20:55;17.10;99.90
25688;DHT22;17407;51.120;3.702;2022-09-09T07:23:23;17.10;99.90
25688;DHT22;17407;51.120;3.702;2022-09-09T07:25:48;17.30;99.90
25688;DHT22;17407;51.120;3.702;2022-09-09T07:28:14;17.30;99.90
25688;DHT22;17407;51.120;3.702;2022-09-09T07:30:40;17.30;99.90
25688;DHT22;17407;51.120;3.702;2022-09-09T07:33:06;17.30;99.90
25688;DHT22;17407;51.120;3.702;2022-09-09T07:35:32;17.40;99.90
25688;DHT22;17407;51.120;3.702;2022-09-09T07:38:00;17.40;99.90
25688;DHT22;17407;51.120;3.702;2022-09-09T07:40:25;17.40;99.90
25688;DHT22;17407;51.120;3.702;2022-09-09T07:42:51;17.50;99.90
25688;DHT22;17407;51.120;3.702;2022-09-09T07:45:16;17.60;99.90
25688;DHT22;17407;51.120;3.702;2022-09-09T07:47:42;17.70;99.90
25688;DHT22;17407;51.120;3.702;2022-09-09T07:50:09;17.80;99.90
25688;DHT22;17407;51.120;3.702;2022-09-09T07:52:35;17.80;99.90
25688;DHT22;17407;51.120;3.702;2022-09-09T07:55:01;17.80;99.90
25688;DHT22;17407;51.120;3.702;2022-09-09T07:57:28;17.80;99.90
25688;DHT22;17407;51.120;3.702;2022-09-09T07:59:56;17.70;99.90
25688;DHT22;17407;51.120;3.702;2022-09-09T08:02:23;17.70;99.90
25688;DHT22;17407;51.120;3.702;2022-09-09T08:04:50;17.70;99.90
25688;DHT22;17407;51.120;3.702;2022-09-09T08:07:17;17.70;99.90
25688;DHT22;17407;51.120;3.702;2022-09-09T08:09:43;17.60;99.90
25688;DHT22;17407;51.120;3.702;2022-09-09T08:12:09;17.50;99.90
25688;DHT22;17407;51.120;3.702;2022-09-09T08:14:36;17.60;99.90
25688;DHT22;17407;51.120;3.702;2022-09-09T08:17:02;17.60;99.90
25688;DHT22;17407;51.120;3.702;2022-09-09T08:19:28;17.60;99.90
25688;DHT22;17407;51.120;3.702;2022-09-09T08:21:59;17.50;99.90
25688;DHT22;17407;51.120;3.702;2022-09-09T08:24:27;17.60;99.90
25688;DHT22;17407;51.120;3.702;2022-09-09T08:26:53;17.40;99.90
25688;DHT22;17407;51.120;3.702;2022-09-09T08:29:19;17.50;99.90
25688;DHT22;17407;51.120;3.702;2022-09-09T08:31:52;17.50;99.90
25688;DHT22;17407;51.120;3.702;2022-09-09T08:34:20;17.30;99.90
25688;DHT22;17407;51.120;3.702;2022-09-09T08:36:48;17.20;99.90
25688;DHT22;17407;51.120;3.702;2022-09-09T08:39:17;17.30;99.90
25688;DHT22;17407;51.120;3.702;2022-09-09T08:43:02;17.40;99.90
25688;DHT22;17407;51.120;3.702;2022-09-09T08:45:19;17.40;99.90
25688;DHT22;17407;51.120;3.702;2022-09-09T08:50:35;17.30;99.90
25688;DHT22;17407;51.120;3.702;2022-09-09T08:53:05;17.50;99.90
25688;DHT22;17407;51.120;3.702;2022-09-09T08:55:47;17.40;99.90
25688;DHT22;17407;51.120;3.702;2022-09-09T08:58:19;17.30;99.90
25688;DHT22;17407;51.120;3.702;2022-09-09T09:01:02;17.40;99.90
25688;DHT22;17407;51.120;3.702;2022-09-09T09:04:06;17.50;99.90
25688;DHT22;17407;51.120;3.702;2022-09-09T09:12:27;17.30;99.90
25688;DHT22;17407;51.120;3.702;2022-09-09T09:14:54;17.40;99.90
25688;DHT22;17407;51.120;3.702;2022-09-09T09:17:25;17.40;99.90
25688;DHT22;17407;51.120;3.702;2022-09-09T09:19:53;17.50;99.90
25688;DHT22;17407;51.120;3.702;2022-09-09T09:27:34;17.70;99.90
25688;DHT22;17407;51.120;3.702;2022-09-09T09:30:12;17.70;99.90
25688;DHT22;17407;51.120;3.702;2022-09-09T09:32:42;17.80;99.90
25688;DHT22;17407;51.120;3.702;2022-09-09T09:35:13;17.90;99.90
25688;DHT22;17407;51.120;3.702;2022-09-09T09:37:40;18.10;99.90
25688;DHT22;17407;51.120;3.702;2022-09-09T09:40:16;18.00;99.90
25688;DHT22;17407;51.120;3.702;2022-09-09T09:42:54;18.00;99.90
25688;DHT22;17407;51.120;3.702;2022-09-09T09:45:54;18.10;99.90
25688;DHT22;17407;51.120;3.702;2022-09-09T09:48:19;18.20;99.90
25688;DHT22;17407;51.120;3.702;2022-09-09T09:50:57;18.20;99.90
25688;DHT22;17407;51.120;3.702;2022-09-09T09:53:34;18.30;99.90
25688;DHT22;17407;51.120;3.702;2022-09-09T09:56:02;18.30;99.90
25688;DHT22;17407;51.120;3.702;2022-09-09T10:01:31;18.30;99.90
25688;DHT22;17407;51.120;3.702;2022-09-09T10:04:15;18.20;99.90
25688;DHT22;17407;51.120;3.702;2022-09-09T10:06:41;18.30;99.90
25688;DHT22;17407;51.120;3.702;2022-09-09T10:09:24;18.30;99.90
25688;DHT22;17407;51.120;3.702;2022-09-09T10:14:21;18.40;99.90
25688;DHT22;17407;51.120;3.702;2022-09-09T10:19:41;18.60;99.90
25688;DHT22;17407;51.120;3.702;2022-09-09T10:22:14;18.60;99.90
25688;DHT22;17407;51.120;3.702;2022-09-09T10:27:47;18.70;99.90
25688;DHT22;17407;51.120;3.702;2022-09-09T10:30:22;18.70;99.90
25688;DHT22;17407;51.120;3.702;2022-09-09T10:33:01;18.70;99.90
25688;DHT22;17407;51.120;3.702;2022-09-09T10:38:31;18.90;99.90
25688;DHT22;17407;51.120;3.702;2022-09-09T10:52:02;19.20;99.90
25688;DHT22;17407;51.120;3.702;2022-09-09T10:57:51;19.40;99.90
25688;DHT22;17407;51.120;3.702;2022-09-09T11:00:20;19.50;99.90
25688;DHT22;17407;51.120;3.702;2022-09-09T11:02:58;19.40;99.90
25688;DHT22;17407;51.120;3.702;2022-09-09T11:07:59;19.40;99.90
25688;DHT22;17407;51.120;3.702;2022-09-09T11:13:30;19.50;99.90
25688;DHT22;17407;51.120;3.702;2022-09-09T11:18:31;19.70;99.90
25688;DHT22;17407;51.120;3.702;2022-09-09T11:21:02;19.70;99.90
25688;DHT22;17407;51.120;3.702;2022-09-09T11:23:41;19.70;99.90
25688;DHT22;17407;51.120;3.702;2022-09-09T11:26:13;19.90;99.90
25688;DHT22;17407;51.120;3.702;2022-09-09T11:29:16;20.00;99.90
25688;DHT22;17407;51.120;3.702;2022-09-09T11:32:07;20.10;99.90
25688;DHT22;17407;51.120;3.702;2022-09-09T11:40:24;20.30;99.90
25688;DHT22;17407;51.120;3.702;2022-09-09T11:43:17;20.30;99.90
25688;DHT22;17407;51.120;3.702;2022-09-09T11:45:54;20.30;99.90
25688;DHT22;17407;51.120;3.702;2022-09-09T11:48:46;20.40;99.90
25688;DHT22;17407;51.120;3.702;2022-09-09T11:51:28;20.50;99.90
25688;DHT22;17407;51.120;3.702;2022-09-09T11:56:44;20.50;99.90
25688;DHT22;17407;51.120;3.702;2022-09-09T11:59:28;20.60;99.90
25688;DHT22;17407;51.120;3.702;2022-09-09T12:02:03;20.80;99.90
25688;DHT22;17407;51.120;3.702;2022-09-09T12:04:40;20.70;99.90
25688;DHT22;17407;51.120;3.702;2022-09-09T12:09:50;21.00;99.90
25688;DHT22;17407;51.120;3.702;2022-09-09T12:12:25;21.10;99.90
25688;DHT22;17407;51.120;3.702;2022-09-09T12:17:27;21.20;99.90
25688;DHT22;17407;51.120;3.702;2022-09-09T12:33:20;21.30;99.90
25688;DHT22;17407;51.120;3.702;2022-09-09T12:35:53;21.10;99.90
25688;DHT22;17407;51.120;3.702;2022-09-09T12:38:36;21.00;99.90
25688;DHT22;17407;51.120;3.702;2022-09-09T12:41:02;21.00;99.90
25688;DHT22;17407;51.120;3.702;2022-09-09T12:43:28;21.10;99.90
25688;DHT22;17407;51.120;3.702;2022-09-09T12:46:00;21.20;99.90
25688;DHT22;17407;51.120;3.702;2022-09-09T12:48:37;21.20;99.90
25688;DHT22;17407;51.120;3.702;2022-09-09T12:51:07;21.20;99.90
25688;DHT22;17407;51.120;3.702;2022-09-09T12:53:42;21.10;99.90
25688;DHT22;17407;51.120;3.702;2022-09-09T12:56:27;21.10;99.90
25688;DHT22;17407;51.120;3.702;2022-09-09T12:58:55;21.00;99.90
25688;DHT22;17407;51.120;3.702;2022-09-09T13:03:52;21.00;99.90
25688;DHT22;17407;51.120;3.702;2022-09-09T13:06:31;21.00;99.90
25688;DHT22;17407;51.120;3.702;2022-09-09T13:09:00;21.30;99.90
25688;DHT22;17407;51.120;3.702;2022-09-09T13:11:31;21.20;99.90
25688;DHT22;17407;51.120;3.702;2022-09-09T13:14:00;21.10;99.90
25688;DHT22;17407;51.120;3.702;2022-09-09T13:16:35;21.20;99.90
25688;DHT22;17407;51.120;3.702;2022-09-09T13:19:14;21.10;99.90
25688;DHT22;17407;51.120;3.702;2022-09-09T13:21:41;21.20;99.90
25688;DHT22;17407;51.120;3.702;2022-09-09T13:24:33;21.40;99.90
25688;DHT22;17407;51.120;3.702;2022-09-09T13:27:01;21.40;99.90
25688;DHT22;17407;51.120;3.702;2022-09-09T13:29:28;21.40;99.90
25688;DHT22;17407;51.120;3.702;2022-09-09T13:32:03;21.50;99.90
25688;DHT22;17407;51.120;3.702;2022-09-09T13:34:32;21.50;99.90
25688;DHT22;17407;51.120;3.702;2022-09-09T13:37:06;21.60;99.90
25688;DHT22;17407;51.120;3.702;2022-09-09T13:39:51;21.50;99.90
25688;DHT22;17407;51.120;3.702;2022-09-09T13:42:29;21.50;99.90
25688;DHT22;17407;51.120;3.702;2022-09-09T13:44:58;21.40;99.90
25688;DHT22;17407;51.120;3.702;2022-09-09T13:47:43;21.30;99.90
25688;DHT22;17407;51.120;3.702;2022-09-09T13:50:25;21.30;99.90
25688;DHT22;17407;51.120;3.702;2022-09-09T13:52:53;21.30;99.90
25688;DHT22;17407;51.120;3.702;2022-09-09T13:55:20;21.20;99.90
25688;DHT22;17407;51.120;3.702;2022-09-09T13:57:56;21.20;99.90
25688;DHT22;17407;51.120;3.702;2022-09-09T14:00:23;21.00;99.90
25688;DHT22;17407;51.120;3.702;2022-09-09T14:02:50;20.90;99.90
25688;DHT22;17407;51.120;3.702;2022-09-09T14:05:17;20.70;99.90
25688;DHT22;17407;51.120;3.702;2022-09-09T14:07:43;20.60;99.90
25688;DHT22;17407;51.120;3.702;2022-09-09T14:10:10;20.50;99.90
25688;DHT22;17407;51.120;3.702;2022-09-09T14:12:37;20.40;99.90
25688;DHT22;17407;51.120;3.702;2022-09-09T14:15:04;20.30;99.90
25688;DHT22;17407;51.120;3.702;2022-09-09T14:17:30;20.30;99.90
25688;DHT22;17407;51.120;3.702;2022-09-09T14:19:57;20.30;99.90
25688;DHT22;17407;51.120;3.702;2022-09-09T14:22:22;20.30;99.90
25688;DHT22;17407;51.120;3.702;2022-09-09T14:24:48;20.20;99.90
25688;DHT22;17407;51.120;3.702;2022-09-09T14:27:15;20.30;99.90
25688;DHT22;17407;51.120;3.702;2022-09-09T14:29:41;20.30;99.90
25688;DHT22;17407;51.120;3.702;2022-09-09T14:32:09;20.30;99.90
25688;DHT22;17407;51.120;3.702;2022-09-09T14:34:34;20.20;99.90
25688;DHT22;17407;51.120;3.702;2022-09-09T14:37:00;20.10;99.90
25688;DHT22;17407;51.120;3.702;2022-09-09T14:39:26;20.00;99.90
25688;DHT22;17407;51.120;3.702;2022-09-09T14:41:52;19.80;99.90
25688;DHT22;17407;51.120;3.702;2022-09-09T14:44:17;19.60;99.90
25688;DHT22;17407;51.120;3.702;2022-09-09T14:46:43;19.50;99.90
25688;DHT22;17407;51.120;3.702;2022-09-09T14:49:09;19.40;99.90
25688;DHT22;17407;51.120;3.702;2022-09-09T14:51:36;19.40;99.90
25688;DHT22;17407;51.120;3.702;2022-09-09T14:54:02;19.40;99.90
25688;DHT22;17407;51.120;3.702;2022-09-09T14:56:29;19.50;99.90
25688;DHT22;17407;51.120;3.702;2022-09-09T14:58:57;19.50;99.90
25688;DHT22;17407;51.120;3.702;2022-09-09T15:01:23;19.60;99.90
25688;DHT22;17407;51.120;3.702;2022-09-09T15:03:59;19.60;99.90
25688;DHT22;17407;51.120;3.702;2022-09-09T15:06:27;19.70;99.90
25688;DHT22;17407;51.120;3.702;2022-09-09T15:08:54;19.70;99.90
25688;DHT22;17407;51.120;3.702;2022-09-09T15:11:23;19.70;99.90
25688;DHT22;17407;51.120;3.702;2022-09-09T15:13:51;19.70;99.90
25688;DHT22;17407;51.120;3.702;2022-09-09T15:16:19;19.70;99.90
25688;DHT22;17407;51.120;3.702;2022-09-09T15:18:46;19.80;99.90
25688;DHT22;17407;51.120;3.702;2022-09-09T15:21:14;19.80;99.90
25688;DHT22;17407;51.120;3.702;2022-09-09T15:23:41;19.90;99.90
25688;DHT22;17407;51.120;3.702;2022-09-09T15:26:08;19.90;99.90
25688;DHT22;17407;51.120;3.702;2022-09-09T15:28:35;20.00;99.90
25688;DHT22;17407;51.120;3.702;2022-09-09T15:31:06;20.10;99.90
25688;DHT22;17407;51.120;3.702;2022-09-09T15:33:32;20.20;99.90
25688;DHT22;17407;51.120;3.702;2022-09-09T15:35:59;20.20;99.90
25688;DHT22;17407;51.120;3.702;2022-09-09T15:38:25;20.20;99.90
25688;DHT22;17407;51.120;3.702;2022-09-09T15:40:54;20.20;99.90
25688;DHT22;17407;51.120;3.702;2022-09-09T15:43:21;20.20;99.90
25688;DHT22;17407;51.120;3.702;2022-09-09T15:45:53;20.20;99.90
25688;DHT22;17407;51.120;3.702;2022-09-09T15:48:30;20.10;99.90
25688;DHT22;17407;51.120;3.702;2022-09-09T15:51:04;20.00;99.90
25688;DHT22;17407;51.120;3.702;2022-09-09T15:53:30;19.90;99.90
25688;DHT22;17407;51.120;3.702;2022-09-09T15:55:58;19.90;99.90
25688;DHT22;17407;51.120;3.702;2022-09-09T15:58:24;20.00;99.90
25688;DHT22;17407;51.120;3.702;2022-09-09T16:00:50;20.20;99.90
25688;DHT22;17407;51.120;3.702;2022-09-09T16:03:16;20.30;99.90
25688;DHT22;17407;51.120;3.702;2022-09-09T16:05:42;20.40;99.90
25688;DHT22;17407;51.120;3.702;2022-09-09T16:08:08;20.60;99.90
25688;DHT22;17407;51.120;3.702;2022-09-09T16:10:34;20.60;99.90
25688;DHT22;17407;51.120;3.702;2022-09-09T16:13:00;20.70;99.90
25688;DHT22;17407;51.120;3.702;2022-09-09T16:15:25;20.70;99.90
25688;DHT22;17407;51.120;3.702;2022-09-09T16:17:53;20.70;99.90
25688;DHT22;17407;51.120;3.702;2022-09-09T16:20:19;20.60;99.90
25688;DHT22;17407;51.120;3.702;2022-09-09T16:22:45;20.60;99.90
25688;DHT22;17407;51.120;3.702;2022-09-09T16:25:11;20.60;99.90
25688;DHT22;17407;51.120;3.702;2022-09-09T16:27:37;20.60;99.90
25688;DHT22;17407;51.120;3.702;2022-09-09T16:30:05;20.60;99.90
25688;DHT22;17407;51.120;3.702;2022-09-09T16:32:31;20.70;99.90
25688;DHT22;17407;51.120;3.702;2022-09-09T16:34:57;20.80;99.90
25688;DHT22;17407;51.120;3.702;2022-09-09T16:37:22;20.80;99.90
25688;DHT22;17407;51.120;3.702;2022-09-09T16:39:48;20.80;99.90
25688;DHT22;17407;51.120;3.702;2022-09-09T16:42:14;20.70;99.90
25688;DHT22;17407;51.120;3.702;2022-09-09T16:44:39;20.70;99.90
25688;DHT22;17407;51.120;3.702;2022-09-09T16:47:05;20.60;99.90
25688;DHT22;17407;51.120;3.702;2022-09-09T16:49:30;20.60;99.90
25688;DHT22;17407;51.120;3.702;2022-09-09T16:51:58;20.30;99.90
25688;DHT22;17407;51.120;3.702;2022-09-09T16:54:24;20.20;99.90
25688;DHT22;17407;51.120;3.702;2022-09-09T16:56:52;20.10;99.90
25688;DHT22;17407;51.120;3.702;2022-09-09T16:59:19;20.10;99.90
25688;DHT22;17407;51.120;3.702;2022-09-09T17:01:47;20.10;99.90
25688;DHT22;17407;51.120;3.702;2022-09-09T17:04:18;20.10;99.90
25688;DHT22;17407;51.120;3.702;2022-09-09T17:06:51;20.10;99.90
25688;DHT22;17407;51.120;3.702;2022-09-09T17:09:17;20.20;99.90
25688;DHT22;17407;51.120;3.702;2022-09-09T17:11:43;20.30;99.90
25688;DHT22;17407;51.120;3.702;2022-09-09T17:14:14;20.30;99.90
25688;DHT22;17407;51.120;3.702;2022-09-09T17:16:40;20.30;99.90
25688;DHT22;17407;51.120;3.702;2022-09-09T17:19:07;20.30;99.90
25688;DHT22;17407;51.120;3.702;2022-09-09T17:21:34;20.20;99.90
25688;DHT22;17407;51.120;3.702;2022-09-09T17:24:00;20.20;99.90
25688;DHT22;17407;51.120;3.702;2022-09-09T17:26:28;20.20;99.90
25688;DHT22;17407;51.120;3.702;2022-09-09T17:28:55;20.20;99.90
25688;DHT22;17407;51.120;3.702;2022-09-09T17:31:23;20.20;99.90
25688;DHT22;17407;51.120;3.702;2022-09-09T17:33:50;20.10;99.90
25688;DHT22;17407;51.120;3.702;2022-09-09T17:36:26;20.10;99.90
25688;DHT22;17407;51.120;3.702;2022-09-09T17:38:53;20.00;99.90
25688;DHT22;17407;51.120;3.702;2022-09-09T17:41:25;20.00;99.90
25688;DHT22;17407;51.120;3.702;2022-09-09T17:43:51;20.00;99.90
25688;DHT22;17407;51.120;3.702;2022-09-09T17:46:23;20.00;99.90